Time;durP1;ratioP1;P1;durP2;ratioP2;P2;SDS_P1;SDS_P2;PMS_P1;PMS_P2;Temp;Humidity;BMP_temperature;BMP_pressure;BME280_temperature;BME280_humidity;BME280_pressure;Samples;Min_cycle;Max_cycle;Signal;HPM_P1;HPM_P2
2022/10/29 00:01:16;;;;;;;25.55;5.82;;;14.20;99.90;;;;;;4217295;28;20044;-89
2022/10/29 00:03:17;;;;;;;20.20;4.30;;;14.20;99.90;;;;;;4217739;28;20048;-89
2022/10/29 00:05:18;;;;;;;23.73;4.85;;;14.20;99.90;;;;;;4222566;28;20040;-89
2022/10/29 00:07:18;;;;;;;33.13;6.97;;;14.20;99.90;;;;;;4224464;28;20258;-88
2022/10/29 00:09:19;;;;;;;29.58;5.38;;;13.70;99.90;;;;;;4234799;28;20386;-88
2022/10/29 00:11:21;;;;;;;22.05;4.32;;;14.20;99.90;;;;;;4233765;28;20051;-88
2022/10/29 00:13:22;;;;;;;23.00;3.58;;;14.20;99.90;;;;;;4226948;28;20406;-89
2022/10/29 00:15:23;;;;;;;19.92;4.80;;;14.10;99.90;;;;;;4232749;28;20083;-89
2022/10/29 00:17:24;;;;;;;20.90;5.00;;;14.20;99.90;;;;;;4217105;28;20040;-89
2022/10/29 00:19:26;;;;;;;18.38;5.45;;;14.10;99.90;;;;;;4215679;28;20040;-88
2022/10/29 00:21:27;;;;;;;23.33;4.25;;;14.10;99.90;;;;;;4215437;28;20052;-88
2022/10/29 00:23:28;;;;;;;22.17;5.45;;;14.10;99.90;;;;;;4233940;28;20079;-87
2022/10/29 00:25:29;;;;;;;23.52;5.55;;;14.10;99.90;;;;;;4225039;28;20051;-89
2022/10/29 00:27:30;;;;;;;21.60;4.97;;;14.10;99.90;;;;;;4217439;28;20044;-88
2022/10/29 00:29:32;;;;;;;20.05;5.35;;;14.10;99.90;;;;;;4216558;28;20051;-89
2022/10/29 00:31:33;;;;;;;30.63;6.45;;;14.00;99.90;;;;;;4217281;28;20921;-89
2022/10/29 00:33:34;;;;;;;22.35;4.35;;;14.00;99.90;;;;;;4232970;28;20430;-89
2022/10/29 00:35:35;;;;;;;21.55;5.18;;;13.60;99.90;;;;;;4217730;28;20088;-89
2022/10/29 00:37:35;;;;;;;19.77;5.15;;;14.00;99.90;;;;;;4217217;28;20047;-88
2022/10/29 00:39:37;;;;;;;20.25;5.78;;;13.90;99.90;;;;;;4217187;28;20460;-89
2022/10/29 00:41:38;;;;;;;20.63;6.15;;;13.90;99.90;;;;;;4234022;28;20485;-89
2022/10/29 00:43:43;;;;;;;18.88;5.32;;;13.80;99.90;;;;;;4233600;28;20051;-89
2022/10/29 00:45:55;;;;;;;19.75;4.80;;;13.80;99.90;;;;;;4234247;28;20485;-88
2022/10/29 00:47:56;;;;;;;23.85;4.95;;;13.80;99.90;;;;;;4233859;28;20100;-89
2022/10/29 00:50:07;;;;;;;18.15;5.18;;;13.70;99.90;;;;;;4220225;28;20477;-88
2022/10/29 00:52:09;;;;;;;23.48;4.93;;;13.70;99.90;;;;;;4220651;28;20052;-88
2022/10/29 00:54:12;;;;;;;26.13;6.10;;;13.70;99.90;;;;;;4232996;28;20042;-88
2022/10/29 00:56:13;;;;;;;20.42;5.22;;;13.70;99.90;;;;;;4218438;28;20044;-88
2022/10/29 00:58:14;;;;;;;27.67;5.28;;;13.70;99.90;;;;;;4216640;28;20497;-88
2022/10/29 01:00:17;;;;;;;28.35;5.75;;;13.60;99.90;;;;;;4215904;28;20043;-89
2022/10/29 01:02:19;;;;;;;28.30;5.35;;;13.60;99.90;;;;;;4216193;28;20040;-89
2022/10/29 01:04:21;;;;;;;22.77;6.25;;;13.60;99.90;;;;;;4215248;28;20066;-89
2022/10/29 01:06:23;;;;;;;24.67;5.43;;;13.60;99.90;;;;;;4216358;28;20048;-88
2022/10/29 01:08:24;;;;;;;25.13;5.75;;;13.60;99.90;;;;;;4216081;28;20409;-88
2022/10/29 01:10:41;;;;;;;31.77;5.65;;;13.60;99.90;;;;;;4216229;28;20044;-88
2022/10/29 01:13:13;;;;;;;25.48;5.82;;;13.60;99.90;;;;;;4214732;28;20468;-88
2022/10/29 01:15:43;;;;;;;37.70;7.15;;;13.60;99.90;;;;;;4217007;28;20067;-87
2022/10/29 01:17:52;;;;;;;36.38;6.32;;;13.50;99.90;;;;;;4231370;28;20047;-88
2022/10/29 01:20:30;;;;;;;41.55;7.45;;;13.50;99.90;;;;;;4232050;28;20561;-87
2022/10/29 01:22:50;;;;;;;42.13;5.78;;;13.50;99.90;;;;;;4235748;28;20031;-89
2022/10/29 01:24:58;;;;;;;35.22;6.15;;;13.50;99.90;;;;;;4232053;28;20048;-89
2022/10/29 01:27:19;;;;;;;33.33;6.15;;;13.50;99.90;;;;;;4231258;28;20079;-88
2022/10/29 01:29:32;;;;;;;54.50;5.85;;;13.50;99.90;;;;;;4231988;28;20036;-89
2022/10/29 01:31:42;;;;;;;51.00;6.32;;;13.50;99.90;;;;;;4224817;28;20098;-90
2022/10/29 01:34:11;;;;;;;69.55;6.63;;;13.50;99.90;;;;;;4232238;28;20073;-88
2022/10/29 01:36:18;;;;;;;;;;;13.40;99.90;;;;;;4233406;28;20122;-88
2022/10/29 01:38:22;;;;;;;48.53;6.53;;;13.40;99.90;;;;;;4233167;28;19986;-89
2022/10/29 01:40:38;;;;;;;76.35;7.32;;;13.50;99.90;;;;;;4232797;28;20093;-88
2022/10/29 01:42:44;;;;;;;46.58;6.13;;;13.40;99.90;;;;;;4232819;28;20047;-88
2022/10/29 01:44:50;;;;;;;70.57;6.90;;;12.70;99.90;;;;;;4231965;28;20047;-88
2022/10/29 01:47:03;;;;;;;66.88;6.68;;;13.40;99.90;;;;;;4232650;28;20043;-88
2022/10/29 01:49:09;;;;;;;71.30;6.88;;;13.40;99.90;;;;;;4228378;28;20051;-88
2022/10/29 01:51:20;;;;;;;46.88;6.55;;;13.40;99.90;;;;;;4217196;28;20040;-90
2022/10/29 01:53:22;;;;;;;71.38;7.15;;;13.40;99.90;;;;;;4231679;28;20040;-88
2022/10/29 01:55:28;;;;;;;59.30;6.93;;;13.40;99.90;;;;;;4243835;28;20055;-88
2022/10/29 01:57:37;;;;;;;72.93;7.20;;;13.40;99.90;;;;;;4244644;28;20043;-88
2022/10/29 01:59:38;;;;;;;93.13;7.25;;;13.40;99.90;;;;;;4243293;28;20047;-88
2022/10/29 02:02:11;;;;;;;80.90;7.10;;;13.40;99.90;;;;;;4243698;28;20051;-88
2022/10/29 02:04:50;;;;;;;53.17;6.45;;;13.40;99.90;;;;;;4242317;28;20059;-88
2022/10/29 02:07:29;;;;;;;73.55;7.45;;;13.40;99.90;;;;;;4232741;28;20051;-88
2022/10/29 02:09:53;;;;;;;85.93;6.65;;;13.40;99.90;;;;;;4226703;28;20093;-88
2022/10/29 02:12:06;;;;;;;74.25;6.97;;;13.40;99.90;;;;;;4232589;28;20479;-88
2022/10/29 02:14:13;;;;;;;43.60;6.50;;;13.40;99.90;;;;;;4231657;28;20051;-88
2022/10/29 02:16:15;;;;;;;69.43;7.13;;;13.40;99.90;;;;;;4231082;28;20047;-88
2022/10/29 02:18:17;;;;;;;73.70;7.00;;;13.40;99.90;;;;;;4230420;28;20047;-88
2022/10/29 02:20:17;;;;;;;36.08;6.18;;;13.30;99.90;;;;;;4231389;28;20123;-89
2022/10/29 02:22:18;;;;;;;27.45;6.78;;;13.30;99.90;;;;;;4230642;28;20051;-88
2022/10/29 02:24:20;;;;;;;46.72;6.65;;;13.30;99.90;;;;;;4232016;28;20044;-89
2022/10/29 02:26:21;;;;;;;85.75;7.90;;;13.30;99.90;;;;;;4231704;28;20044;-88
2022/10/29 02:28:21;;;;;;;52.75;7.78;;;13.30;99.90;;;;;;4231594;28;20123;-89
2022/10/29 02:30:22;;;;;;;81.50;9.75;;;13.30;99.90;;;;;;4235856;28;20475;-89
2022/10/29 02:32:23;;;;;;;104.18;8.35;;;13.30;99.90;;;;;;4248996;28;20043;-89
2022/10/29 02:34:23;;;;;;;112.55;8.43;;;13.30;99.90;;;;;;4236115;28;20040;-89
2022/10/29 02:36:24;;;;;;;136.60;9.68;;;13.30;99.90;;;;;;4235908;28;20071;-89
2022/10/29 02:38:26;;;;;;;122.80;8.00;;;13.30;99.90;;;;;;4236256;28;20047;-88
2022/10/29 02:40:26;;;;;;;149.73;9.25;;;13.30;99.90;;;;;;4235588;28;20036;-89
2022/10/29 02:42:27;;;;;;;196.30;10.32;;;13.30;99.90;;;;;;4238041;28;20078;-88
2022/10/29 02:44:28;;;;;;;129.27;8.35;;;13.20;99.90;;;;;;4221605;28;20056;-88
2022/10/29 02:46:29;;;;;;;167.90;8.45;;;13.20;99.90;;;;;;4230460;28;20586;-87
2022/10/29 02:48:30;;;;;;;150.88;8.50;;;13.20;99.90;;;;;;4238016;28;20113;-87
2022/10/29 02:50:31;;;;;;;98.55;7.60;;;13.20;99.90;;;;;;4239539;28;20039;-88
2022/10/29 02:52:32;;;;;;;127.60;8.10;;;13.10;99.90;;;;;;4239537;28;20108;-87
2022/10/29 02:54:32;;;;;;;96.97;7.22;;;13.10;99.90;;;;;;4239554;28;20044;-88
2022/10/29 02:56:33;;;;;;;106.97;7.30;;;13.10;99.90;;;;;;4234294;28;20122;-88
2022/10/29 02:58:34;;;;;;;126.47;7.82;;;13.10;99.90;;;;;;4234444;28;20059;-88
2022/10/29 03:00:35;;;;;;;192.20;9.00;;;13.10;99.90;;;;;;4232719;28;20115;-88
2022/10/29 03:02:35;;;;;;;109.53;7.18;;;13.10;99.90;;;;;;4216913;28;20417;-88
2022/10/29 03:04:38;;;;;;;84.53;6.88;;;13.10;99.90;;;;;;4216919;28;20563;-88
2022/10/29 03:06:40;;;;;;;46.05;5.38;;;13.10;99.90;;;;;;4217372;28;20040;-88
2022/10/29 03:08:41;;;;;;;72.20;6.40;;;13.00;99.90;;;;;;4217830;28;20111;-88
2022/10/29 03:10:41;;;;;;;76.85;6.00;;;13.10;99.90;;;;;;4227878;28;20035;-88
2022/10/29 03:12:42;;;;;;;80.00;5.90;;;13.10;99.90;;;;;;4234005;28;20123;-88
2022/10/29 03:14:42;;;;;;;43.53;5.40;;;13.10;99.90;;;;;;4234284;28;20050;-88
2022/10/29 03:16:43;;;;;;;71.03;5.90;;;13.00;99.90;;;;;;4233735;28;20497;-88
2022/10/29 03:18:44;;;;;;;97.15;6.60;;;13.00;99.90;;;;;;4234240;28;20416;-88
2022/10/29 03:20:46;;;;;;;77.78;6.10;;;13.00;99.90;;;;;;4234608;28;20039;-88
2022/10/29 03:22:47;;;;;;;36.78;5.30;;;13.00;99.90;;;;;;4234114;28;20044;-88
2022/10/29 03:24:47;;;;;;;80.20;5.50;;;13.00;99.90;;;;;;4234051;28;20667;-88
2022/10/29 03:26:48;;;;;;;50.08;4.65;;;13.00;99.90;;;;;;4232566;28;20055;-89
2022/10/29 03:28:49;;;;;;;113.28;6.30;;;13.00;99.90;;;;;;4234237;28;20511;-88
2022/10/29 03:30:49;;;;;;;64.47;6.07;;;13.00;99.90;;;;;;4223800;28;20048;-90
2022/10/29 03:32:51;;;;;;;45.25;5.45;;;13.00;99.90;;;;;;4217323;28;20065;-89
2022/10/29 03:34:51;;;;;;;64.00;5.45;;;12.90;99.90;;;;;;4229286;28;20048;-89
2022/10/29 03:36:52;;;;;;;80.90;6.05;;;13.00;99.90;;;;;;4233672;28;20050;-89
2022/10/29 03:38:54;;;;;;;126.18;7.18;;;13.00;99.90;;;;;;4233047;28;20086;-89
2022/10/29 03:40:54;;;;;;;135.18;6.60;;;13.00;99.90;;;;;;4234010;27;20048;-89
2022/10/29 03:42:55;;;;;;;118.88;7.18;;;12.90;99.90;;;;;;4233910;28;20050;-89
2022/10/29 03:45:00;;;;;;;161.75;7.68;;;13.00;99.90;;;;;;4233456;27;20046;-89
2022/10/29 03:47:01;;;;;;;126.90;6.80;;;13.00;99.90;;;;;;4233559;28;20042;-89
2022/10/29 03:49:01;;;;;;;146.95;8.80;;;13.00;99.90;;;;;;4228405;28;20474;-88
2022/10/29 03:51:07;;;;;;;134.52;7.80;;;13.00;99.90;;;;;;4217242;28;20104;-89
2022/10/29 03:53:10;;;;;;;157.05;8.43;;;12.90;99.90;;;;;;4228864;28;20043;-89
2022/10/29 03:55:10;;;;;;;93.20;6.32;;;12.90;99.90;;;;;;4236192;28;20039;-89
2022/10/29 03:57:11;;;;;;;102.32;6.32;;;12.90;99.90;;;;;;4235716;28;20051;-89
2022/10/29 03:59:12;;;;;;;121.85;6.68;;;12.90;99.90;;;;;;4233949;28;20075;-89
2022/10/29 04:01:13;;;;;;;123.63;6.72;;;12.90;99.90;;;;;;4233389;28;20043;-89
2022/10/29 04:03:13;;;;;;;74.22;5.47;;;12.90;99.90;;;;;;4233638;28;20083;-88
2022/10/29 04:05:15;;;;;;;107.13;6.43;;;12.80;99.90;;;;;;4218870;28;20054;-89
2022/10/29 04:07:18;;;;;;;137.57;7.07;;;12.80;99.90;;;;;;4223230;28;20052;-88
2022/10/29 04:09:19;;;;;;;70.13;5.57;;;12.80;99.90;;;;;;4232929;28;20146;-88
2022/10/29 04:11:19;;;;;;;63.92;5.35;;;12.80;99.90;;;;;;4232844;28;20040;-89
2022/10/29 04:13:20;;;;;;;93.30;5.32;;;12.80;99.90;;;;;;4237100;28;20101;-88
2022/10/29 04:15:20;;;;;;;85.97;5.63;;;12.80;99.90;;;;;;4238305;28;20096;-88
2022/10/29 04:17:21;;;;;;;80.45;5.95;;;12.80;99.90;;;;;;4238093;28;20075;-89
2022/10/29 04:19:22;;;;;;;67.60;5.53;;;12.70;99.90;;;;;;4238249;28;20051;-89
2022/10/29 04:21:22;;;;;;;77.30;5.05;;;12.70;99.90;;;;;;4238909;28;20512;-88
2022/10/29 04:23:23;;;;;;;96.43;6.00;;;12.70;99.90;;;;;;4237658;27;20074;-89
2022/10/29 04:25:24;;;;;;;117.18;6.45;;;12.70;99.90;;;;;;4237910;28;20125;-88
2022/10/29 04:27:26;;;;;;;75.38;5.43;;;12.70;99.90;;;;;;4240650;28;20042;-88
2022/10/29 04:29:27;;;;;;;49.83;4.72;;;12.60;99.90;;;;;;4239980;28;20065;-87
2022/10/29 04:31:27;;;;;;;34.17;4.35;;;12.60;99.90;;;;;;4231345;28;20052;-89
2022/10/29 04:33:28;;;;;;;60.55;4.90;;;12.60;99.90;;;;;;4218470;28;20044;-89
2022/10/29 04:35:29;;;;;;;58.63;4.40;;;12.70;99.90;;;;;;4215970;28;20501;-89
2022/10/29 04:37:29;;;;;;;81.43;5.13;;;12.60;99.90;;;;;;4223676;28;20048;-89
2022/10/29 04:39:30;;;;;;;52.92;4.63;;;12.60;99.90;;;;;;4231373;28;20035;-88
2022/10/29 04:41:32;;;;;;;61.40;4.63;;;12.60;99.90;;;;;;4232811;28;20044;-88
2022/10/29 04:43:33;;;;;;;51.35;4.18;;;12.60;99.90;;;;;;4231133;28;20148;-88
2022/10/29 04:45:34;;;;;;;34.25;3.78;;;12.60;99.90;;;;;;4231317;28;20513;-89
2022/10/29 04:47:35;;;;;;;19.27;2.90;;;12.60;99.90;;;;;;4232255;28;20059;-88
2022/10/29 04:49:35;;;;;;;59.42;4.22;;;12.60;99.90;;;;;;4232078;28;20103;-88
2022/10/29 04:51:36;;;;;;;27.17;3.75;;;12.60;99.90;;;;;;4232465;28;20063;-88
2022/10/29 04:53:39;;;;;;;68.90;5.18;;;12.60;99.90;;;;;;4232532;28;20087;-88
2022/10/29 04:55:40;;;;;;;45.53;4.63;;;12.50;99.90;;;;;;4232454;28;20048;-88
2022/10/29 04:57:40;;;;;;;59.67;4.55;;;12.60;99.90;;;;;;4232097;28;20496;-88
2022/10/29 04:59:41;;;;;;;64.68;4.82;;;12.60;99.90;;;;;;4233004;28;20039;-89
2022/10/29 05:01:42;;;;;;;60.15;4.38;;;12.60;99.90;;;;;;4232396;28;20126;-88
2022/10/29 05:03:42;;;;;;;50.08;4.63;;;12.50;99.90;;;;;;4232505;28;20408;-89
2022/10/29 05:05:43;;;;;;;46.88;4.18;;;12.60;99.90;;;;;;4231903;28;20122;-88
2022/10/29 05:07:44;;;;;;;46.50;4.60;;;12.60;99.90;;;;;;4231580;28;20478;-88
2022/10/29 05:09:45;;;;;;;93.35;5.55;;;12.60;99.90;;;;;;4232069;28;20047;-88
2022/10/29 05:11:45;;;;;;;72.53;5.13;;;12.60;99.90;;;;;;4234434;28;20508;-88
2022/10/29 05:13:46;;;;;;;73.90;5.22;;;12.60;99.90;;;;;;4235619;28;20639;-88
2022/10/29 05:15:50;;;;;;;57.53;4.60;;;12.60;99.90;;;;;;4232136;28;20092;-89
2022/10/29 05:17:51;;;;;;;56.50;4.72;;;12.60;99.90;;;;;;4232411;28;20111;-89
2022/10/29 05:19:52;;;;;;;47.78;4.45;;;12.60;99.90;;;;;;4231668;28;20039;-89
2022/10/29 05:21:52;;;;;;;54.90;4.80;;;12.60;99.90;;;;;;4231134;28;20096;-88
2022/10/29 05:23:53;;;;;;;75.22;4.53;;;12.60;99.90;;;;;;4232686;28;20091;-88
2022/10/29 05:25:54;;;;;;;38.35;3.78;;;12.60;99.90;;;;;;4232380;28;20047;-89
2022/10/29 05:27:59;;;;;;;36.20;3.38;;;12.60;99.90;;;;;;4231392;28;20047;-88
2022/10/29 05:30:00;;;;;;;50.10;4.28;;;12.60;99.90;;;;;;4234268;28;20554;-89
2022/10/29 05:32:01;;;;;;;50.83;4.15;;;12.60;99.90;;;;;;4231091;28;20047;-88
2022/10/29 05:34:01;;;;;;;39.83;4.28;;;12.60;99.90;;;;;;4231757;28;20046;-89
2022/10/29 05:36:02;;;;;;;49.65;4.45;;;12.60;99.90;;;;;;4232774;28;20043;-88
2022/10/29 05:38:03;;;;;;;36.00;4.22;;;12.60;99.90;;;;;;4232636;28;20321;-88
2022/10/29 05:40:04;;;;;;;50.05;4.55;;;12.60;99.90;;;;;;4231834;28;20122;-89
2022/10/29 05:42:05;;;;;;;37.38;4.63;;;12.60;99.90;;;;;;4232123;28;20047;-88
2022/10/29 05:44:09;;;;;;;50.53;4.15;;;12.60;99.90;;;;;;4236995;28;20117;-88
2022/10/29 05:46:10;;;;;;;48.25;4.72;;;12.70;99.90;;;;;;4232376;28;20100;-89
2022/10/29 05:48:11;;;;;;;61.92;5.05;;;12.60;99.90;;;;;;4233221;28;20051;-89
2022/10/29 05:50:12;;;;;;;58.65;4.95;;;12.60;99.90;;;;;;4231216;28;20051;-88
2022/10/29 05:52:14;;;;;;;44.60;4.30;;;12.60;99.90;;;;;;4232577;28;20096;-89
2022/10/29 05:54:14;;;;;;;90.75;6.25;;;12.60;99.90;;;;;;4231711;28;20051;-89
2022/10/29 05:56:15;;;;;;;71.47;5.35;;;12.60;99.90;;;;;;4232677;28;20469;-88
2022/10/29 05:58:16;;;;;;;32.10;4.43;;;12.80;99.90;;;;;;4232055;28;20054;-89
2022/10/29 06:00:17;;;;;;;31.35;4.35;;;12.50;99.90;;;;;;4232737;28;20043;-89
2022/10/29 06:02:17;;;;;;;44.47;5.35;;;12.50;99.90;;;;;;4232252;28;20678;-89
2022/10/29 06:04:18;;;;;;;44.60;5.28;;;12.50;99.90;;;;;;4231728;28;20047;-88
2022/10/29 06:06:19;;;;;;;35.85;5.35;;;12.50;99.90;;;;;;4232551;28;20106;-89
2022/10/29 06:08:19;;;;;;;47.47;5.15;;;12.50;99.90;;;;;;4232004;28;20082;-89
2022/10/29 06:10:21;;;;;;;65.25;5.65;;;12.50;99.90;;;;;;4232283;28;20039;-88
2022/10/29 06:12:21;;;;;;;67.65;5.70;;;12.50;99.90;;;;;;4230366;28;20059;-89
2022/10/29 06:14:23;;;;;;;119.10;7.78;;;12.50;99.90;;;;;;4215670;28;20044;-88
2022/10/29 06:16:24;;;;;;;113.93;7.13;;;12.50;99.90;;;;;;4221747;28;20506;-87
2022/10/29 06:18:27;;;;;;;97.43;7.40;;;12.50;99.90;;;;;;4232704;28;20108;-88
2022/10/29 06:20:28;;;;;;;46.80;5.72;;;12.40;99.90;;;;;;4216040;28;20429;-88
2022/10/29 06:22:29;;;;;;;58.70;5.90;;;12.40;99.90;;;;;;4224100;28;20047;-88
2022/10/29 06:24:30;;;;;;;125.10;8.02;;;12.40;99.90;;;;;;4232237;28;20048;-88
2022/10/29 06:26:32;;;;;;;87.63;6.53;;;12.40;99.90;;;;;;4232222;28;20134;-88
2022/10/29 06:28:34;;;;;;;66.88;5.50;;;12.40;99.90;;;;;;4236269;28;20165;-88
2022/10/29 06:30:35;;;;;;;50.50;5.32;;;12.40;99.90;;;;;;4234687;28;20431;-88
2022/10/29 06:32:36;;;;;;;41.30;4.85;;;12.40;99.90;;;;;;4219008;28;20101;-89
2022/10/29 06:34:37;;;;;;;51.85;5.22;;;12.40;99.90;;;;;;4223985;28;20031;-89
2022/10/29 06:36:40;;;;;;;47.63;5.28;;;12.40;99.90;;;;;;4231498;28;20089;-88
2022/10/29 06:38:41;;;;;;;38.90;4.93;;;12.50;99.90;;;;;;4219848;28;20040;-89
2022/10/29 06:40:42;;;;;;;63.05;5.72;;;12.40;99.90;;;;;;4223727;28;20054;-89
2022/10/29 06:42:44;;;;;;;45.63;6.13;;;12.50;99.90;;;;;;4232825;28;20044;-88
2022/10/29 06:44:44;;;;;;;34.83;5.53;;;12.50;99.90;;;;;;4231238;28;20040;-89
2022/10/29 06:46:45;;;;;;;25.08;5.38;;;12.50;99.90;;;;;;4232699;28;20107;-89
2022/10/29 06:48:45;;;;;;;39.33;5.35;;;12.50;99.90;;;;;;4228199;28;20113;-89
2022/10/29 06:50:46;;;;;;;45.03;6.40;;;12.50;99.90;;;;;;4214505;28;20050;-90
2022/10/29 06:52:57;;;;;;;66.82;6.90;;;12.50;99.90;;;;;;4229663;28;20409;-89
2022/10/29 06:55:01;;;;;;;36.53;5.72;;;12.50;99.90;;;;;;4232463;28;20051;-89
2022/10/29 06:57:02;;;;;;;49.95;5.78;;;12.60;99.90;;;;;;4232120;28;20055;-89
2022/10/29 06:59:03;;;;;;;32.70;5.05;;;12.50;99.90;;;;;;4228148;28;20122;-89
2022/10/29 07:01:04;;;;;;;35.33;5.40;;;12.60;99.90;;;;;;4232672;28;20451;-89
2022/10/29 07:03:06;;;;;;;21.33;5.57;;;12.60;99.90;;;;;;4231901;28;20044;-89
2022/10/29 07:05:07;;;;;;;31.17;4.85;;;12.60;99.90;;;;;;4231575;28;20047;-89
2022/10/29 07:07:08;;;;;;;38.03;4.70;;;12.60;99.90;;;;;;4232131;28;20051;-89
2022/10/29 07:09:10;;;;;;;32.65;5.75;;;12.60;99.90;;;;;;4231610;28;20035;-90
2022/10/29 07:11:14;;;;;;;28.63;5.10;;;12.60;99.90;;;;;;4198281;28;20040;-89
2022/10/29 07:13:15;;;;;;;24.08;4.35;;;12.70;99.90;;;;;;4223288;28;20437;-88
2022/10/29 07:15:15;;;;;;;26.10;4.25;;;12.70;99.90;;;;;;4215521;28;20059;-89
2022/10/29 07:17:17;;;;;;;40.97;4.53;;;12.70;99.90;;;;;;4233748;28;20062;-89
2022/10/29 07:19:19;;;;;;;20.63;4.22;;;12.70;99.90;;;;;;4214001;28;20110;-89
2022/10/29 07:21:21;;;;;;;29.08;5.25;;;12.70;99.90;;;;;;4230920;28;20056;-89
2022/10/29 07:23:24;;;;;;;33.13;4.63;;;12.70;99.90;;;;;;4219641;28;20035;-89
2022/10/29 07:25:28;;;;;;;37.78;4.80;;;12.80;99.90;;;;;;4231132;28;20052;-88
2022/10/29 07:27:28;;;;;;;32.55;4.70;;;12.70;99.90;;;;;;4230645;28;20055;-87
2022/10/29 07:29:30;;;;;;;23.50;4.88;;;12.80;99.90;;;;;;4232484;28;20386;-89
2022/10/29 07:31:31;;;;;;;30.58;4.53;;;12.80;99.90;;;;;;4234231;28;20167;-87
2022/10/29 07:33:31;;;;;;;43.92;5.50;;;12.80;99.90;;;;;;4234017;28;20056;-89
2022/10/29 07:35:33;;;;;;;25.17;4.47;;;12.80;99.90;;;;;;4233782;28;20065;-88
2022/10/29 07:37:35;;;;;;;32.58;5.63;;;12.80;99.90;;;;;;4218530;28;20052;-88
2022/10/29 07:39:37;;;;;;;39.88;5.30;;;12.80;99.90;;;;;;4218629;28;20036;-88
2022/10/29 07:41:38;;;;;;;30.98;6.20;;;12.90;99.90;;;;;;4234153;28;20051;-88
2022/10/29 07:43:39;;;;;;;33.53;5.25;;;12.80;99.90;;;;;;4233918;28;20039;-87
2022/10/29 07:45:43;;;;;;;42.33;6.43;;;12.90;99.90;;;;;;4237906;28;20048;-87
2022/10/29 07:47:44;;;;;;;47.67;5.97;;;12.90;99.90;;;;;;4238318;28;20509;-88
2022/10/29 07:49:44;;;;;;;42.47;5.57;;;12.90;99.90;;;;;;4229924;28;20055;-88
2022/10/29 07:51:47;;;;;;;50.33;7.15;;;13.00;99.90;;;;;;4232700;28;20086;-88
2022/10/29 07:53:48;;;;;;;62.40;6.10;;;13.00;99.90;;;;;;4235203;28;20870;-88
2022/10/29 07:55:55;;;;;;;56.67;7.05;;;13.10;99.90;;;;;;4233599;28;20090;-88
2022/10/29 07:58:01;;;;;;;58.55;7.78;;;13.10;99.90;;;;;;4233968;28;20047;-88
2022/10/29 08:00:01;;;;;;;77.38;8.13;;;13.10;99.90;;;;;;4234506;28;20036;-88
2022/10/29 08:02:03;;;;;;;60.08;7.00;;;13.20;99.90;;;;;;4232470;28;20383;-85
2022/10/29 08:04:04;;;;;;;54.25;7.47;;;13.20;99.90;;;;;;4216560;28;20470;-87
2022/10/29 08:06:05;;;;;;;79.40;8.25;;;13.30;99.90;;;;;;4234244;28;20044;-88
2022/10/29 08:08:06;;;;;;;50.72;7.78;;;13.30;99.90;;;;;;4234913;28;20066;-88
2022/10/29 08:10:07;;;;;;;60.42;7.97;;;13.30;99.90;;;;;;4232890;28;20114;-88
2022/10/29 08:12:10;;;;;;;66.53;7.72;;;13.40;99.90;;;;;;4234140;28;20051;-88
2022/10/29 08:14:11;;;;;;;58.90;7.97;;;13.40;99.90;;;;;;4232697;28;20043;-88
2022/10/29 08:16:12;;;;;;;44.65;7.97;;;13.40;99.90;;;;;;4225992;28;20056;-88
2022/10/29 08:18:16;;;;;;;51.05;7.57;;;13.50;99.90;;;;;;4216688;28;20540;-88
2022/10/29 08:20:19;;;;;;;50.88;8.77;;;13.50;99.90;;;;;;4217115;28;20047;-88
2022/10/29 08:22:19;;;;;;;53.92;7.32;;;13.50;99.90;;;;;;4217310;28;20098;-88
2022/10/29 08:24:20;;;;;;;52.05;8.63;;;13.50;99.90;;;;;;4200577;28;20056;-88
2022/10/29 08:26:21;;;;;;;38.00;8.20;;;13.60;99.90;;;;;;4232275;28;20044;-88
2022/10/29 08:28:22;;;;;;;49.60;8.20;;;13.60;99.90;;;;;;4223883;28;20040;-89
2022/10/29 08:30:22;;;;;;;53.00;9.38;;;13.60;99.90;;;;;;4215858;28;20118;-89
2022/10/29 08:32:23;;;;;;;42.17;8.85;;;13.60;99.90;;;;;;4235188;28;20122;-89
2022/10/29 08:34:24;;;;;;;49.25;9.82;;;13.60;99.90;;;;;;4215927;28;20051;-89
2022/10/29 08:36:25;;;;;;;44.10;8.77;;;13.70;99.90;;;;;;4216438;28;20044;-88
2022/10/29 08:38:26;;;;;;;44.60;10.35;;;13.70;99.90;;;;;;4234309;28;20047;-88
2022/10/29 08:40:45;;;;;;;49.67;10.10;;;13.70;99.90;;;;;;4215544;28;20044;-88
2022/10/29 08:42:56;;;;;;;;;;;13.80;99.90;;;;;;4214569;28;20078;-89
2022/10/29 08:45:03;;;;;;;43.83;9.88;;;13.80;99.90;;;;;;4216420;28;19928;-89
2022/10/29 08:47:04;;;;;;;39.80;10.35;;;13.80;99.90;;;;;;4229905;28;20058;-90
2022/10/29 08:49:19;;;;;;;48.17;11.57;;;13.90;99.90;;;;;;4216690;28;20511;-88
2022/10/29 08:51:31;;;;;;;47.35;11.27;;;13.30;99.90;;;;;;4234039;27;20080;-90
2022/10/29 08:53:44;;;;;;;40.30;11.23;;;13.90;99.90;;;;;;4213899;28;20084;-88
2022/10/29 08:55:46;;;;;;;50.03;12.32;;;14.00;99.90;;;;;;4232140;28;20059;-87
2022/10/29 08:57:58;;;;;;;44.63;12.18;;;14.00;99.90;;;;;;4233371;28;20111;-88
2022/10/29 09:00:05;;;;;;;45.72;12.63;;;14.10;99.90;;;;;;4218681;28;20393;-89
2022/10/29 09:02:16;;;;;;;44.90;11.07;;;14.10;99.90;;;;;;4232729;28;20074;-88
2022/10/29 09:04:35;;;;;;;46.67;13.18;;;14.10;99.90;;;;;;4236973;28;20074;-88
2022/10/29 09:06:56;;;;;;;50.42;13.60;;;14.20;99.90;;;;;;4232638;28;20101;-89
2022/10/29 09:09:21;;;;;;;42.00;12.23;;;14.20;99.90;;;;;;4216809;28;20068;-89
2022/10/29 09:11:41;;;;;;;43.88;12.27;;;14.20;99.90;;;;;;4225321;28;20126;-88
2022/10/29 09:13:59;;;;;;;40.28;11.85;;;14.20;99.90;;;;;;4209245;28;20056;-88
2022/10/29 09:16:07;;;;;;;43.03;13.27;;;14.20;99.90;;;;;;4215517;28;20596;-87
2022/10/29 09:18:46;;;;;;;36.72;10.30;;;14.20;99.90;;;;;;4233128;28;20052;-88
2022/10/29 09:21:08;;;;;;;40.35;11.57;;;14.20;99.90;;;;;;4181144;28;20110;-87
2022/10/29 09:23:16;;;;;;;40.78;11.85;;;14.30;99.90;;;;;;4246543;27;20075;-89
2022/10/29 09:25:21;;;;;;;44.05;13.30;;;14.30;99.90;;;;;;4208522;28;20090;-88
2022/10/29 09:27:40;;;;;;;38.78;11.57;;;14.30;99.90;;;;;;4220719;28;20040;-88
2022/10/29 09:29:57;;;;;;;39.53;12.82;;;14.30;99.90;;;;;;4214246;28;20535;-89
2022/10/29 09:32:00;;;;;;;42.67;13.55;;;14.40;99.90;;;;;;4214992;28;20439;-88
2022/10/29 09:34:11;;;;;;;47.05;13.30;;;14.40;99.90;;;;;;4216277;28;20051;-88
2022/10/29 09:36:16;;;;;;;36.40;12.23;;;14.40;99.90;;;;;;4214967;28;20040;-89
2022/10/29 09:38:28;;;;;;;41.35;14.30;;;14.50;99.90;;;;;;4231383;28;20051;-89
2022/10/29 09:40:41;;;;;;;40.53;13.35;;;14.50;99.90;;;;;;4223257;28;20071;-88
2022/10/29 09:42:46;;;;;;;41.53;13.38;;;14.60;99.90;;;;;;4215973;28;20087;-88
2022/10/29 09:44:53;;;;;;;41.05;13.45;;;14.60;99.90;;;;;;4217233;28;20052;-87
2022/10/29 09:47:20;;;;;;;34.40;13.88;;;14.60;99.90;;;;;;4199231;28;20052;-88
2022/10/29 09:49:56;;;;;;;37.70;12.27;;;14.60;99.90;;;;;;4217147;28;20054;-88
2022/10/29 09:52:18;;;;;;;33.80;13.15;;;14.60;99.90;;;;;;4219328;28;20053;-87
2022/10/29 09:54:19;;;;;;;35.08;11.93;;;14.60;99.90;;;;;;4232312;28;20051;-88
2022/10/29 09:56:21;;;;;;;32.45;13.15;;;14.60;99.90;;;;;;4216222;28;20055;-88
2022/10/29 09:58:24;;;;;;;36.30;13.18;;;14.60;99.90;;;;;;4232324;28;20127;-88
2022/10/29 10:00:29;;;;;;;49.78;14.52;;;14.70;99.90;;;;;;4232738;28;20493;-89
2022/10/29 10:02:37;;;;;;;42.08;13.52;;;14.70;99.90;;;;;;4234412;28;20043;-88
2022/10/29 10:04:44;;;;;;;33.58;13.65;;;14.70;99.90;;;;;;4233640;28;20476;-88
2022/10/29 10:07:04;;;;;;;48.70;12.40;;;14.70;99.90;;;;;;4221104;28;20052;-88
2022/10/29 10:09:05;;;;;;;40.83;12.90;;;14.70;99.90;;;;;;4234763;28;20087;-88
2022/10/29 10:11:06;;;;;;;40.72;12.55;;;14.70;99.90;;;;;;4234526;28;20055;-88
2022/10/29 10:13:13;;;;;;;38.58;12.50;;;14.80;99.90;;;;;;4237674;28;20094;-87
2022/10/29 10:15:35;;;;;;;40.15;13.43;;;14.80;99.90;;;;;;4225477;28;20056;-89
2022/10/29 10:17:54;;;;;;;35.60;12.05;;;14.90;99.90;;;;;;4228886;28;20059;-87
2022/10/29 10:19:56;;;;;;;32.00;12.07;;;15.00;99.90;;;;;;4238254;28;20047;-88
2022/10/29 10:22:15;;;;;;;36.08;11.15;;;15.10;99.90;;;;;;4241347;28;20077;-88
2022/10/29 10:24:30;;;;;;;33.88;12.85;;;15.10;99.90;;;;;;4243173;28;20043;-88
2022/10/29 10:26:42;;;;;;;33.08;12.30;;;15.10;99.90;;;;;;4242142;28;20070;-88
2022/10/29 10:28:45;;;;;;;40.90;11.70;;;15.20;99.90;;;;;;4226238;28;20103;-88
2022/10/29 10:31:14;;;;;;;34.88;12.30;;;15.20;99.90;;;;;;4225178;28;20052;-88
2022/10/29 10:33:22;;;;;;;;;;;15.20;99.90;;;;;;4225274;28;20040;-88
2022/10/29 10:35:34;;;;;;;30.92;10.65;;;15.30;99.90;;;;;;4231377;28;19978;-89
2022/10/29 10:37:36;;;;;;;32.53;11.55;;;15.40;99.90;;;;;;4232670;28;20055;-88
2022/10/29 10:39:41;;;;;;;30.60;10.93;;;15.40;99.90;;;;;;4232615;28;20581;-88